sensor_id;sensor_type;location;lat;lon;timestamp;P1;durP1;ratioP1;P2;durP2;ratioP2
2994;SDS011;35277;49.890;8.222;2023-05-10T00:01:12;1.40;;;1.17;;
2994;SDS011;35277;49.890;8.222;2023-05-10T00:03:40;1.00;;;0.50;;
2994;SDS011;35277;49.890;8.222;2023-05-10T00:06:08;1.10;;;0.70;;
2994;SDS011;35277;49.890;8.222;2023-05-10T00:08:38;1.00;;;0.40;;
2994;SDS011;35277;49.890;8.222;2023-05-10T00:11:05;1.00;;;0.40;;
2994;SDS011;35277;49.890;8.222;2023-05-10T00:13:33;1.00;;;0.57;;
2994;SDS011;35277;49.890;8.222;2023-05-10T00:16:01;0.93;;;0.37;;
2994;SDS011;35277;49.890;8.222;2023-05-10T00:18:29;1.23;;;0.50;;
2994;SDS011;35277;49.890;8.222;2023-05-10T00:20:57;3.90;;;1.07;;
2994;SDS011;35277;49.890;8.222;2023-05-10T00:23:25;1.00;;;0.50;;
2994;SDS011;35277;49.890;8.222;2023-05-10T00:25:54;1.00;;;0.50;;
2994;SDS011;35277;49.890;8.222;2023-05-10T00:28:22;1.57;;;0.80;;
2994;SDS011;35277;49.890;8.222;2023-05-10T00:30:50;1.00;;;0.50;;
2994;SDS011;35277;49.890;8.222;2023-05-10T00:33:17;1.20;;;0.50;;
2994;SDS011;35277;49.890;8.222;2023-05-10T00:35:46;1.00;;;0.40;;
2994;SDS011;35277;49.890;8.222;2023-05-10T00:38:14;0.90;;;0.40;;
2994;SDS011;35277;49.890;8.222;2023-05-10T00:40:42;0.93;;;0.40;;
2994;SDS011;35277;49.890;8.222;2023-05-10T00:43:18;1.50;;;0.90;;
2994;SDS011;35277;49.890;8.222;2023-05-10T00:45:46;1.07;;;0.80;;
2994;SDS011;35277;49.890;8.222;2023-05-10T00:48:15;0.97;;;0.40;;
2994;SDS011;35277;49.890;8.222;2023-05-10T00:50:43;1.00;;;0.30;;
2994;SDS011;35277;49.890;8.222;2023-05-10T00:53:11;0.90;;;0.40;;
2994;SDS011;35277;49.890;8.222;2023-05-10T00:55:39;1.10;;;0.50;;
2994;SDS011;35277;49.890;8.222;2023-05-10T00:58:07;0.93;;;0.30;;
2994;SDS011;35277;49.890;8.222;2023-05-10T01:00:37;1.00;;;0.40;;
2994;SDS011;35277;49.890;8.222;2023-05-10T01:03:09;1.10;;;0.60;;
2994;SDS011;35277;49.890;8.222;2023-05-10T01:05:37;1.00;;;0.30;;
2994;SDS011;35277;49.890;8.222;2023-05-10T01:08:05;1.00;;;0.50;;
2994;SDS011;35277;49.890;8.222;2023-05-10T01:10:34;1.00;;;0.37;;
2994;SDS011;35277;49.890;8.222;2023-05-10T01:13:02;0.97;;;0.40;;
2994;SDS011;35277;49.890;8.222;2023-05-10T01:15:30;0.90;;;0.30;;
2994;SDS011;35277;49.890;8.222;2023-05-10T01:18:00;0.90;;;0.30;;
2994;SDS011;35277;49.890;8.222;2023-05-10T01:20:30;0.90;;;0.30;;
2994;SDS011;35277;49.890;8.222;2023-05-10T01:23:11;0.97;;;0.40;;
2994;SDS011;35277;49.890;8.222;2023-05-10T01:26:13;1.00;;;0.33;;
2994;SDS011;35277;49.890;8.222;2023-05-10T01:31:58;0.90;;;0.30;;
2994;SDS011;35277;49.890;8.222;2023-05-10T01:34:52;0.97;;;0.40;;
2994;SDS011;35277;49.890;8.222;2023-05-10T01:37:25;1.30;;;0.60;;
2994;SDS011;35277;49.890;8.222;2023-05-10T01:39:59;1.57;;;1.23;;
2994;SDS011;35277;49.890;8.222;2023-05-10T01:42:35;1.00;;;0.40;;
2994;SDS011;35277;49.890;8.222;2023-05-10T01:45:09;1.00;;;0.40;;
2994;SDS011;35277;49.890;8.222;2023-05-10T01:47:48;1.00;;;0.50;;
2994;SDS011;35277;49.890;8.222;2023-05-10T01:50:22;0.97;;;0.30;;
2994;SDS011;35277;49.890;8.222;2023-05-10T01:52:55;0.90;;;0.30;;
2994;SDS011;35277;49.890;8.222;2023-05-10T01:55:26;1.17;;;0.73;;
2994;SDS011;35277;49.890;8.222;2023-05-10T01:57:58;0.90;;;0.40;;
2994;SDS011;35277;49.890;8.222;2023-05-10T02:00:29;1.10;;;0.40;;
2994;SDS011;35277;49.890;8.222;2023-05-10T02:03:00;1.10;;;0.53;;
2994;SDS011;35277;49.890;8.222;2023-05-10T02:05:31;0.90;;;0.37;;
2994;SDS011;35277;49.890;8.222;2023-05-10T02:08:00;1.00;;;0.50;;
2994;SDS011;35277;49.890;8.222;2023-05-10T02:10:30;1.00;;;0.30;;
2994;SDS011;35277;49.890;8.222;2023-05-10T02:12:59;1.00;;;0.40;;
2994;SDS011;35277;49.890;8.222;2023-05-10T02:15:28;1.10;;;0.40;;
2994;SDS011;35277;49.890;8.222;2023-05-10T02:17:57;1.73;;;0.53;;
2994;SDS011;35277;49.890;8.222;2023-05-10T02:20:28;1.60;;;0.87;;
2994;SDS011;35277;49.890;8.222;2023-05-10T02:22:58;1.10;;;0.87;;
2994;SDS011;35277;49.890;8.222;2023-05-10T02:25:28;0.90;;;0.30;;
2994;SDS011;35277;49.890;8.222;2023-05-10T02:27:57;1.20;;;0.50;;
2994;SDS011;35277;49.890;8.222;2023-05-10T02:30:28;1.00;;;0.43;;
2994;SDS011;35277;49.890;8.222;2023-05-10T02:33:00;1.23;;;0.73;;
2994;SDS011;35277;49.890;8.222;2023-05-10T02:35:29;1.00;;;0.30;;
2994;SDS011;35277;49.890;8.222;2023-05-10T02:38:00;0.90;;;0.40;;
2994;SDS011;35277;49.890;8.222;2023-05-10T02:40:29;1.00;;;0.40;;
2994;SDS011;35277;49.890;8.222;2023-05-10T02:42:57;0.97;;;0.40;;
2994;SDS011;35277;49.890;8.222;2023-05-10T02:45:30;1.00;;;0.40;;
2994;SDS011;35277;49.890;8.222;2023-05-10T02:48:00;0.93;;;0.30;;
2994;SDS011;35277;49.890;8.222;2023-05-10T02:50:29;1.20;;;0.60;;
2994;SDS011;35277;49.890;8.222;2023-05-10T02:52:59;1.10;;;0.60;;
2994;SDS011;35277;49.890;8.222;2023-05-10T02:55:31;1.00;;;0.50;;
2994;SDS011;35277;49.890;8.222;2023-05-10T02:58:04;0.90;;;0.40;;
2994;SDS011;35277;49.890;8.222;2023-05-10T03:00:32;0.97;;;0.40;;
2994;SDS011;35277;49.890;8.222;2023-05-10T03:03:01;1.30;;;0.93;;
2994;SDS011;35277;49.890;8.222;2023-05-10T03:05:29;1.20;;;0.50;;
2994;SDS011;35277;49.890;8.222;2023-05-10T03:07:59;1.07;;;0.50;;
2994;SDS011;35277;49.890;8.222;2023-05-10T03:10:30;1.00;;;0.43;;
2994;SDS011;35277;49.890;8.222;2023-05-10T03:13:05;1.20;;;0.70;;
2994;SDS011;35277;49.890;8.222;2023-05-10T03:15:42;1.00;;;0.50;;
2994;SDS011;35277;49.890;8.222;2023-05-10T03:18:17;0.90;;;0.30;;
2994;SDS011;35277;49.890;8.222;2023-05-10T03:20:50;0.90;;;0.30;;
2994;SDS011;35277;49.890;8.222;2023-05-10T03:23:25;1.00;;;0.60;;
2994;SDS011;35277;49.890;8.222;2023-05-10T03:25:57;2.90;;;0.80;;
2994;SDS011;35277;49.890;8.222;2023-05-10T03:28:26;1.00;;;0.50;;
2994;SDS011;35277;49.890;8.222;2023-05-10T03:30:54;1.00;;;0.50;;
2994;SDS011;35277;49.890;8.222;2023-05-10T03:33:24;1.30;;;1.20;;
2994;SDS011;35277;49.890;8.222;2023-05-10T03:35:52;1.00;;;0.60;;
2994;SDS011;35277;49.890;8.222;2023-05-10T03:38:20;1.00;;;0.50;;
2994;SDS011;35277;49.890;8.222;2023-05-10T03:40:48;0.90;;;0.30;;
2994;SDS011;35277;49.890;8.222;2023-05-10T03:43:16;1.10;;;0.50;;
2994;SDS011;35277;49.890;8.222;2023-05-10T03:45:44;0.90;;;0.40;;
2994;SDS011;35277;49.890;8.222;2023-05-10T03:48:11;0.90;;;0.40;;
2994;SDS011;35277;49.890;8.222;2023-05-10T03:50:42;0.97;;;0.30;;
2994;SDS011;35277;49.890;8.222;2023-05-10T03:53:10;1.00;;;0.57;;
2994;SDS011;35277;49.890;8.222;2023-05-10T03:55:38;1.10;;;0.60;;
2994;SDS011;35277;49.890;8.222;2023-05-10T03:58:06;1.00;;;0.40;;
2994;SDS011;35277;49.890;8.222;2023-05-10T04:00:37;1.00;;;0.40;;
2994;SDS011;35277;49.890;8.222;2023-05-10T04:03:10;1.00;;;0.50;;
2994;SDS011;35277;49.890;8.222;2023-05-10T04:05:38;1.00;;;0.40;;
2994;SDS011;35277;49.890;8.222;2023-05-10T04:08:07;1.20;;;0.60;;
2994;SDS011;35277;49.890;8.222;2023-05-10T04:10:35;1.00;;;0.50;;
2994;SDS011;35277;49.890;8.222;2023-05-10T04:13:03;1.00;;;0.50;;
2994;SDS011;35277;49.890;8.222;2023-05-10T04:15:31;0.90;;;0.40;;
2994;SDS011;35277;49.890;8.222;2023-05-10T04:17:59;1.00;;;0.40;;
2994;SDS011;35277;49.890;8.222;2023-05-10T04:20:27;1.00;;;0.40;;
2994;SDS011;35277;49.890;8.222;2023-05-10T04:22:55;0.90;;;0.33;;
2994;SDS011;35277;49.890;8.222;2023-05-10T04:25:24;1.30;;;0.77;;
2994;SDS011;35277;49.890;8.222;2023-05-10T04:27:51;1.00;;;0.40;;
2994;SDS011;35277;49.890;8.222;2023-05-10T04:30:19;1.00;;;0.40;;
2994;SDS011;35277;49.890;8.222;2023-05-10T04:32:47;1.00;;;0.40;;
2994;SDS011;35277;49.890;8.222;2023-05-10T04:35:15;0.97;;;0.37;;
2994;SDS011;35277;49.890;8.222;2023-05-10T04:37:43;0.90;;;0.33;;
2994;SDS011;35277;49.890;8.222;2023-05-10T04:40:11;1.20;;;0.93;;
2994;SDS011;35277;49.890;8.222;2023-05-10T04:42:41;0.90;;;0.30;;
2994;SDS011;35277;49.890;8.222;2023-05-10T04:45:09;1.60;;;0.80;;
2994;SDS011;35277;49.890;8.222;2023-05-10T04:47:37;1.00;;;0.50;;
2994;SDS011;35277;49.890;8.222;2023-05-10T04:50:05;1.20;;;0.50;;
2994;SDS011;35277;49.890;8.222;2023-05-10T04:52:34;1.10;;;0.40;;
2994;SDS011;35277;49.890;8.222;2023-05-10T04:55:02;1.00;;;0.47;;
2994;SDS011;35277;49.890;8.222;2023-05-10T04:57:30;0.90;;;0.33;;
2994;SDS011;35277;49.890;8.222;2023-05-10T05:00:00;1.30;;;0.70;;
2994;SDS011;35277;49.890;8.222;2023-05-10T05:02:29;1.10;;;0.50;;
2994;SDS011;35277;49.890;8.222;2023-05-10T05:04:57;0.93;;;0.40;;
2994;SDS011;35277;49.890;8.222;2023-05-10T05:07:24;0.90;;;0.40;;
2994;SDS011;35277;49.890;8.222;2023-05-10T05:09:52;1.43;;;0.70;;
2994;SDS011;35277;49.890;8.222;2023-05-10T05:12:20;0.90;;;0.30;;
2994;SDS011;35277;49.890;8.222;2023-05-10T05:14:48;1.27;;;0.70;;
2994;SDS011;35277;49.890;8.222;2023-05-10T05:17:17;1.27;;;0.73;;
2994;SDS011;35277;49.890;8.222;2023-05-10T05:19:45;0.90;;;0.40;;
2994;SDS011;35277;49.890;8.222;2023-05-10T05:22:12;0.90;;;0.30;;
2994;SDS011;35277;49.890;8.222;2023-05-10T05:24:41;1.10;;;0.60;;
2994;SDS011;35277;49.890;8.222;2023-05-10T05:27:09;1.00;;;0.53;;
2994;SDS011;35277;49.890;8.222;2023-05-10T05:29:37;1.50;;;0.60;;
2994;SDS011;35277;49.890;8.222;2023-05-10T05:32:05;0.93;;;0.40;;
2994;SDS011;35277;49.890;8.222;2023-05-10T05:34:36;0.90;;;0.30;;
2994;SDS011;35277;49.890;8.222;2023-05-10T05:37:03;1.10;;;0.43;;
2994;SDS011;35277;49.890;8.222;2023-05-10T05:39:31;0.90;;;0.40;;
2994;SDS011;35277;49.890;8.222;2023-05-10T05:41:59;1.10;;;0.40;;
2994;SDS011;35277;49.890;8.222;2023-05-10T05:44:27;0.97;;;0.33;;
2994;SDS011;35277;49.890;8.222;2023-05-10T05:46:55;0.97;;;0.37;;
2994;SDS011;35277;49.890;8.222;2023-05-10T05:49:23;1.00;;;0.40;;
2994;SDS011;35277;49.890;8.222;2023-05-10T05:51:52;0.90;;;0.30;;
2994;SDS011;35277;49.890;8.222;2023-05-10T05:54:20;3.23;;;1.43;;
2994;SDS011;35277;49.890;8.222;2023-05-10T05:56:48;1.00;;;0.40;;
2994;SDS011;35277;49.890;8.222;2023-05-10T05:59:15;1.20;;;0.80;;
2994;SDS011;35277;49.890;8.222;2023-05-10T06:01:43;0.90;;;0.30;;
2994;SDS011;35277;49.890;8.222;2023-05-10T06:04:11;1.10;;;0.50;;
2994;SDS011;35277;49.890;8.222;2023-05-10T06:06:39;1.00;;;0.40;;
2994;SDS011;35277;49.890;8.222;2023-05-10T06:09:08;1.00;;;0.60;;
2994;SDS011;35277;49.890;8.222;2023-05-10T06:11:36;0.90;;;0.30;;
2994;SDS011;35277;49.890;8.222;2023-05-10T06:14:04;0.90;;;0.30;;
2994;SDS011;35277;49.890;8.222;2023-05-10T06:16:34;1.00;;;0.50;;
2994;SDS011;35277;49.890;8.222;2023-05-10T06:19:02;0.90;;;0.30;;
2994;SDS011;35277;49.890;8.222;2023-05-10T06:21:30;1.10;;;0.70;;
2994;SDS011;35277;49.890;8.222;2023-05-10T06:23:58;1.10;;;0.77;;
2994;SDS011;35277;49.890;8.222;2023-05-10T06:26:27;2.80;;;1.57;;
2994;SDS011;35277;49.890;8.222;2023-05-10T06:28:55;0.90;;;0.40;;
2994;SDS011;35277;49.890;8.222;2023-05-10T06:31:22;0.97;;;0.33;;
2994;SDS011;35277;49.890;8.222;2023-05-10T06:33:51;0.90;;;0.33;;
2994;SDS011;35277;49.890;8.222;2023-05-10T06:36:21;1.00;;;0.50;;
2994;SDS011;35277;49.890;8.222;2023-05-10T06:38:51;0.90;;;0.30;;
2994;SDS011;35277;49.890;8.222;2023-05-10T06:41:18;1.30;;;0.53;;
2994;SDS011;35277;49.890;8.222;2023-05-10T06:43:51;0.90;;;0.37;;
2994;SDS011;35277;49.890;8.222;2023-05-10T06:46:19;1.00;;;0.70;;
2994;SDS011;35277;49.890;8.222;2023-05-10T06:48:46;1.00;;;0.40;;
2994;SDS011;35277;49.890;8.222;2023-05-10T06:51:14;0.90;;;0.40;;
2994;SDS011;35277;49.890;8.222;2023-05-10T06:53:42;1.97;;;1.50;;
2994;SDS011;35277;49.890;8.222;2023-05-10T06:56:10;2.23;;;2.00;;
2994;SDS011;35277;49.890;8.222;2023-05-10T06:58:38;1.10;;;0.77;;
2994;SDS011;35277;49.890;8.222;2023-05-10T07:01:07;1.00;;;0.50;;
2994;SDS011;35277;49.890;8.222;2023-05-10T07:03:35;1.10;;;0.80;;
2994;SDS011;35277;49.890;8.222;2023-05-10T07:06:03;1.00;;;0.40;;
2994;SDS011;35277;49.890;8.222;2023-05-10T07:08:41;1.87;;;0.93;;
2994;SDS011;35277;49.890;8.222;2023-05-10T07:11:09;1.00;;;0.50;;
2994;SDS011;35277;49.890;8.222;2023-05-10T07:13:37;2.70;;;1.93;;
2994;SDS011;35277;49.890;8.222;2023-05-10T07:16:05;1.00;;;0.40;;
2994;SDS011;35277;49.890;8.222;2023-05-10T07:18:35;0.90;;;0.40;;
2994;SDS011;35277;49.890;8.222;2023-05-10T07:21:03;0.97;;;0.40;;
2994;SDS011;35277;49.890;8.222;2023-05-10T07:23:31;1.00;;;0.60;;
2994;SDS011;35277;49.890;8.222;2023-05-10T07:25:59;1.10;;;0.53;;
2994;SDS011;35277;49.890;8.222;2023-05-10T07:28:28;0.90;;;0.30;;
2994;SDS011;35277;49.890;8.222;2023-05-10T07:30:56;0.90;;;0.30;;
2994;SDS011;35277;49.890;8.222;2023-05-10T07:33:24;1.10;;;0.60;;
2994;SDS011;35277;49.890;8.222;2023-05-10T07:35:53;0.90;;;0.40;;
2994;SDS011;35277;49.890;8.222;2023-05-10T07:38:21;0.90;;;0.40;;
2994;SDS011;35277;49.890;8.222;2023-05-10T07:40:49;1.10;;;0.50;;
2994;SDS011;35277;49.890;8.222;2023-05-10T07:43:17;0.97;;;0.40;;
2994;SDS011;35277;49.890;8.222;2023-05-10T07:45:44;1.20;;;0.50;;
2994;SDS011;35277;49.890;8.222;2023-05-10T07:48:12;1.43;;;0.83;;
2994;SDS011;35277;49.890;8.222;2023-05-10T07:50:40;0.97;;;0.40;;
2994;SDS011;35277;49.890;8.222;2023-05-10T07:53:09;1.10;;;0.50;;
2994;SDS011;35277;49.890;8.222;2023-05-10T07:55:37;8.53;;;0.80;;
2994;SDS011;35277;49.890;8.222;2023-05-10T07:58:05;0.90;;;0.30;;
2994;SDS011;35277;49.890;8.222;2023-05-10T08:00:33;1.00;;;0.40;;
2994;SDS011;35277;49.890;8.222;2023-05-10T08:03:01;0.90;;;0.40;;
2994;SDS011;35277;49.890;8.222;2023-05-10T08:05:29;0.90;;;0.30;;
2994;SDS011;35277;49.890;8.222;2023-05-10T08:08:00;1.10;;;0.57;;
2994;SDS011;35277;49.890;8.222;2023-05-10T08:10:29;1.30;;;0.50;;
2994;SDS011;35277;49.890;8.222;2023-05-10T08:12:57;1.00;;;0.40;;
2994;SDS011;35277;49.890;8.222;2023-05-10T08:15:25;1.00;;;0.40;;
2994;SDS011;35277;49.890;8.222;2023-05-10T08:17:53;0.93;;;0.30;;
2994;SDS011;35277;49.890;8.222;2023-05-10T08:20:21;0.90;;;0.40;;
2994;SDS011;35277;49.890;8.222;2023-05-10T08:22:49;0.90;;;0.30;;
2994;SDS011;35277;49.890;8.222;2023-05-10T08:25:17;0.90;;;0.30;;
2994;SDS011;35277;49.890;8.222;2023-05-10T08:27:46;0.93;;;0.30;;
2994;SDS011;35277;49.890;8.222;2023-05-10T08:30:14;1.00;;;0.53;;
2994;SDS011;35277;49.890;8.222;2023-05-10T08:32:42;1.00;;;0.50;;
2994;SDS011;35277;49.890;8.222;2023-05-10T08:35:10;0.97;;;0.47;;
2994;SDS011;35277;49.890;8.222;2023-05-10T08:37:38;1.00;;;0.40;;
2994;SDS011;35277;49.890;8.222;2023-05-10T08:40:06;4.70;;;1.17;;
2994;SDS011;35277;49.890;8.222;2023-05-10T08:42:36;1.00;;;0.40;;
2994;SDS011;35277;49.890;8.222;2023-05-10T08:45:09;0.90;;;0.30;;
2994;SDS011;35277;49.890;8.222;2023-05-10T08:47:38;0.90;;;0.30;;
2994;SDS011;35277;49.890;8.222;2023-05-10T08:50:06;1.00;;;0.40;;
2994;SDS011;35277;49.890;8.222;2023-05-10T08:52:35;1.00;;;0.40;;
2994;SDS011;35277;49.890;8.222;2023-05-10T08:55:07;0.90;;;0.30;;
2994;SDS011;35277;49.890;8.222;2023-05-10T08:57:35;1.00;;;0.30;;
2994;SDS011;35277;49.890;8.222;2023-05-10T09:00:04;1.00;;;0.30;;
2994;SDS011;35277;49.890;8.222;2023-05-10T09:02:34;25.47;;;1.10;;
2994;SDS011;35277;49.890;8.222;2023-05-10T09:05:04;1.00;;;0.40;;
2994;SDS011;35277;49.890;8.222;2023-05-10T09:07:32;0.90;;;0.30;;
2994;SDS011;35277;49.890;8.222;2023-05-10T09:10:01;1.00;;;0.40;;
2994;SDS011;35277;49.890;8.222;2023-05-10T09:12:30;0.90;;;0.30;;
2994;SDS011;35277;49.890;8.222;2023-05-10T09:14:58;0.90;;;0.30;;
2994;SDS011;35277;49.890;8.222;2023-05-10T09:17:27;0.90;;;0.40;;
2994;SDS011;35277;49.890;8.222;2023-05-10T09:20:00;1.00;;;0.40;;
2994;SDS011;35277;49.890;8.222;2023-05-10T09:22:30;0.90;;;0.40;;
2994;SDS011;35277;49.890;8.222;2023-05-10T09:25:05;1.00;;;0.40;;
2994;SDS011;35277;49.890;8.222;2023-05-10T09:27:34;0.90;;;0.33;;
2994;SDS011;35277;49.890;8.222;2023-05-10T09:30:03;1.00;;;0.40;;
2994;SDS011;35277;49.890;8.222;2023-05-10T09:32:38;1.30;;;0.50;;
2994;SDS011;35277;49.890;8.222;2023-05-10T09:35:08;1.10;;;0.60;;
2994;SDS011;35277;49.890;8.222;2023-05-10T09:37:38;5.60;;;0.63;;
2994;SDS011;35277;49.890;8.222;2023-05-10T09:40:08;0.90;;;0.30;;
2994;SDS011;35277;49.890;8.222;2023-05-10T09:42:40;0.90;;;0.30;;
2994;SDS011;35277;49.890;8.222;2023-05-10T09:45:09;0.90;;;0.30;;
2994;SDS011;35277;49.890;8.222;2023-05-10T09:47:37;0.90;;;0.40;;
2994;SDS011;35277;49.890;8.222;2023-05-10T09:50:05;1.60;;;0.97;;
2994;SDS011;35277;49.890;8.222;2023-05-10T09:52:46;1.10;;;0.53;;
2994;SDS011;35277;49.890;8.222;2023-05-10T09:55:15;1.00;;;0.30;;
2994;SDS011;35277;49.890;8.222;2023-05-10T09:57:44;8.67;;;4.73;;
2994;SDS011;35277;49.890;8.222;2023-05-10T10:00:16;19.37;;;10.13;;
2994;SDS011;35277;49.890;8.222;2023-05-10T10:02:45;5.70;;;5.00;;
2994;SDS011;35277;49.890;8.222;2023-05-10T10:05:14;3.77;;;3.47;;
2994;SDS011;35277;49.890;8.222;2023-05-10T10:07:43;3.93;;;3.60;;
2994;SDS011;35277;49.890;8.222;2023-05-10T10:10:12;3.57;;;2.30;;
2994;SDS011;35277;49.890;8.222;2023-05-10T10:12:41;1.53;;;1.43;;
2994;SDS011;35277;49.890;8.222;2023-05-10T10:15:09;2.00;;;1.53;;
2994;SDS011;35277;49.890;8.222;2023-05-10T10:17:38;4.43;;;2.47;;
2994;SDS011;35277;49.890;8.222;2023-05-10T10:20:06;1.53;;;1.10;;
2994;SDS011;35277;49.890;8.222;2023-05-10T10:22:37;1.70;;;1.60;;
2994;SDS011;35277;49.890;8.222;2023-05-10T10:25:05;6.43;;;3.20;;
2994;SDS011;35277;49.890;8.222;2023-05-10T10:27:38;1.10;;;0.77;;
2994;SDS011;35277;49.890;8.222;2023-05-10T10:30:14;3.10;;;2.43;;
2994;SDS011;35277;49.890;8.222;2023-05-10T10:32:55;2.40;;;1.23;;
2994;SDS011;35277;49.890;8.222;2023-05-10T10:35:52;4.13;;;2.03;;
2994;SDS011;35277;49.890;8.222;2023-05-10T10:38:21;1.30;;;0.73;;
2994;SDS011;35277;49.890;8.222;2023-05-10T10:40:50;10.63;;;3.17;;
2994;SDS011;35277;49.890;8.222;2023-05-10T10:43:30;2.00;;;0.70;;
2994;SDS011;35277;49.890;8.222;2023-05-10T10:46:14;1.73;;;1.20;;
2994;SDS011;35277;49.890;8.222;2023-05-10T10:48:47;1.57;;;0.97;;
2994;SDS011;35277;49.890;8.222;2023-05-10T10:51:17;1.10;;;0.67;;
2994;SDS011;35277;49.890;8.222;2023-05-10T10:53:45;2.50;;;1.23;;
2994;SDS011;35277;49.890;8.222;2023-05-10T10:56:15;1.00;;;0.50;;
2994;SDS011;35277;49.890;8.222;2023-05-10T10:58:51;1.33;;;0.90;;
2994;SDS011;35277;49.890;8.222;2023-05-10T11:01:20;1.00;;;0.50;;
2994;SDS011;35277;49.890;8.222;2023-05-10T11:06:44;0.90;;;0.30;;
2994;SDS011;35277;49.890;8.222;2023-05-10T11:09:12;0.90;;;0.40;;
2994;SDS011;35277;49.890;8.222;2023-05-10T11:11:51;1.30;;;0.60;;
2994;SDS011;35277;49.890;8.222;2023-05-10T11:14:22;1.00;;;0.50;;
2994;SDS011;35277;49.890;8.222;2023-05-10T11:16:50;0.90;;;0.40;;
2994;SDS011;35277;49.890;8.222;2023-05-10T11:19:18;1.20;;;0.80;;
2994;SDS011;35277;49.890;8.222;2023-05-10T11:21:47;1.03;;;0.50;;
2994;SDS011;35277;49.890;8.222;2023-05-10T11:24:17;1.00;;;0.60;;
2994;SDS011;35277;49.890;8.222;2023-05-10T11:26:46;0.90;;;0.30;;
2994;SDS011;35277;49.890;8.222;2023-05-10T11:29:17;0.90;;;0.40;;
2994;SDS011;35277;49.890;8.222;2023-05-10T11:31:47;0.90;;;0.30;;
2994;SDS011;35277;49.890;8.222;2023-05-10T11:34:25;1.27;;;0.70;;
2994;SDS011;35277;49.890;8.222;2023-05-10T11:36:54;1.40;;;0.80;;
2994;SDS011;35277;49.890;8.222;2023-05-10T11:39:25;1.00;;;0.40;;
2994;SDS011;35277;49.890;8.222;2023-05-10T11:41:54;0.90;;;0.30;;
2994;SDS011;35277;49.890;8.222;2023-05-10T11:44:23;0.90;;;0.37;;
2994;SDS011;35277;49.890;8.222;2023-05-10T11:46:52;1.00;;;0.50;;
2994;SDS011;35277;49.890;8.222;2023-05-10T11:49:20;1.00;;;0.40;;
2994;SDS011;35277;49.890;8.222;2023-05-10T11:51:52;0.90;;;0.37;;
2994;SDS011;35277;49.890;8.222;2023-05-10T11:54:19;1.00;;;0.40;;
2994;SDS011;35277;49.890;8.222;2023-05-10T11:56:47;1.10;;;0.53;;
2994;SDS011;35277;49.890;8.222;2023-05-10T11:59:17;1.00;;;0.40;;
2994;SDS011;35277;49.890;8.222;2023-05-10T12:01:45;1.20;;;0.70;;
2994;SDS011;35277;49.890;8.222;2023-05-10T12:04:14;0.90;;;0.40;;
2994;SDS011;35277;49.890;8.222;2023-05-10T12:06:42;0.93;;;0.33;;
2994;SDS011;35277;49.890;8.222;2023-05-10T12:09:12;0.90;;;0.30;;
2994;SDS011;35277;49.890;8.222;2023-05-10T12:11:40;0.90;;;0.30;;
2994;SDS011;35277;49.890;8.222;2023-05-10T12:14:09;1.00;;;0.50;;
2994;SDS011;35277;49.890;8.222;2023-05-10T12:16:37;0.90;;;0.30;;
2994;SDS011;35277;49.890;8.222;2023-05-10T12:19:05;1.00;;;0.30;;
2994;SDS011;35277;49.890;8.222;2023-05-10T12:21:35;0.90;;;0.40;;
2994;SDS011;35277;49.890;8.222;2023-05-10T12:24:04;0.90;;;0.30;;
2994;SDS011;35277;49.890;8.222;2023-05-10T12:26:32;0.90;;;0.30;;
2994;SDS011;35277;49.890;8.222;2023-05-10T12:29:11;0.90;;;0.30;;
2994;SDS011;35277;49.890;8.222;2023-05-10T12:31:48;1.20;;;0.87;;
2994;SDS011;35277;49.890;8.222;2023-05-10T12:34:24;0.90;;;0.50;;
2994;SDS011;35277;49.890;8.222;2023-05-10T12:36:54;1.00;;;0.47;;
2994;SDS011;35277;49.890;8.222;2023-05-10T12:39:22;1.20;;;0.80;;
2994;SDS011;35277;49.890;8.222;2023-05-10T12:41:50;1.87;;;0.90;;
2994;SDS011;35277;49.890;8.222;2023-05-10T12:44:18;0.90;;;0.30;;
2994;SDS011;35277;49.890;8.222;2023-05-10T12:46:46;1.00;;;0.50;;
2994;SDS011;35277;49.890;8.222;2023-05-10T12:49:14;0.90;;;0.40;;
2994;SDS011;35277;49.890;8.222;2023-05-10T12:51:43;0.90;;;0.40;;
2994;SDS011;35277;49.890;8.222;2023-05-10T12:54:12;0.90;;;0.40;;
2994;SDS011;35277;49.890;8.222;2023-05-10T12:56:40;0.90;;;0.40;;
2994;SDS011;35277;49.890;8.222;2023-05-10T12:59:08;0.97;;;0.40;;
2994;SDS011;35277;49.890;8.222;2023-05-10T13:01:36;0.93;;;0.37;;
2994;SDS011;35277;49.890;8.222;2023-05-10T13:04:04;0.90;;;0.40;;
2994;SDS011;35277;49.890;8.222;2023-05-10T13:06:32;0.90;;;0.40;;
2994;SDS011;35277;49.890;8.222;2023-05-10T13:09:01;1.10;;;0.40;;
2994;SDS011;35277;49.890;8.222;2023-05-10T13:11:30;0.90;;;0.30;;
2994;SDS011;35277;49.890;8.222;2023-05-10T13:13:58;7.77;;;1.03;;
2994;SDS011;35277;49.890;8.222;2023-05-10T13:16:26;1.60;;;0.60;;
2994;SDS011;35277;49.890;8.222;2023-05-10T13:18:54;3.33;;;1.47;;
2994;SDS011;35277;49.890;8.222;2023-05-10T13:21:22;0.90;;;0.40;;
2994;SDS011;35277;49.890;8.222;2023-05-10T13:23:51;0.93;;;0.40;;
2994;SDS011;35277;49.890;8.222;2023-05-10T13:26:18;1.10;;;0.40;;
2994;SDS011;35277;49.890;8.222;2023-05-10T13:28:48;0.90;;;0.30;;
2994;SDS011;35277;49.890;8.222;2023-05-10T13:31:17;0.90;;;0.40;;
2994;SDS011;35277;49.890;8.222;2023-05-10T13:33:45;1.00;;;0.50;;
2994;SDS011;35277;49.890;8.222;2023-05-10T13:36:13;1.00;;;0.40;;
2994;SDS011;35277;49.890;8.222;2023-05-10T13:38:41;1.00;;;0.40;;
2994;SDS011;35277;49.890;8.222;2023-05-10T13:41:09;1.00;;;0.40;;
2994;SDS011;35277;49.890;8.222;2023-05-10T13:43:37;1.00;;;0.40;;
2994;SDS011;35277;49.890;8.222;2023-05-10T13:46:06;1.20;;;0.50;;
2994;SDS011;35277;49.890;8.222;2023-05-10T13:48:34;0.90;;;0.30;;
2994;SDS011;35277;49.890;8.222;2023-05-10T13:51:04;0.97;;;0.30;;
2994;SDS011;35277;49.890;8.222;2023-05-10T13:53:32;1.00;;;0.40;;
2994;SDS011;35277;49.890;8.222;2023-05-10T13:56:00;0.90;;;0.30;;
2994;SDS011;35277;49.890;8.222;2023-05-10T13:58:28;1.00;;;0.50;;
2994;SDS011;35277;49.890;8.222;2023-05-10T14:00:56;0.90;;;0.40;;
2994;SDS011;35277;49.890;8.222;2023-05-10T14:03:25;0.97;;;0.40;;
2994;SDS011;35277;49.890;8.222;2023-05-10T14:05:54;1.13;;;0.40;;
2994;SDS011;35277;49.890;8.222;2023-05-10T14:08:21;1.10;;;0.70;;
2994;SDS011;35277;49.890;8.222;2023-05-10T14:10:49;1.00;;;0.40;;
2994;SDS011;35277;49.890;8.222;2023-05-10T14:13:18;3.33;;;0.60;;
2994;SDS011;35277;49.890;8.222;2023-05-10T14:15:46;1.10;;;0.50;;
2994;SDS011;35277;49.890;8.222;2023-05-10T14:18:14;0.90;;;0.30;;
2994;SDS011;35277;49.890;8.222;2023-05-10T14:20:43;1.10;;;0.40;;
2994;SDS011;35277;49.890;8.222;2023-05-10T14:23:10;0.90;;;0.30;;
2994;SDS011;35277;49.890;8.222;2023-05-10T14:25:39;1.00;;;0.40;;
2994;SDS011;35277;49.890;8.222;2023-05-10T14:28:07;0.90;;;0.30;;
2994;SDS011;35277;49.890;8.222;2023-05-10T14:30:35;0.90;;;0.30;;
2994;SDS011;35277;49.890;8.222;2023-05-10T14:33:03;0.93;;;0.40;;
2994;SDS011;35277;49.890;8.222;2023-05-10T14:35:31;0.90;;;0.30;;
2994;SDS011;35277;49.890;8.222;2023-05-10T14:38:01;1.00;;;0.40;;
2994;SDS011;35277;49.890;8.222;2023-05-10T14:40:29;0.90;;;0.30;;
2994;SDS011;35277;49.890;8.222;2023-05-10T14:42:57;2.43;;;1.20;;
2994;SDS011;35277;49.890;8.222;2023-05-10T14:45:25;1.87;;;1.17;;
2994;SDS011;35277;49.890;8.222;2023-05-10T14:47:53;1.60;;;1.00;;
2994;SDS011;35277;49.890;8.222;2023-05-10T14:50:21;2.60;;;2.20;;
2994;SDS011;35277;49.890;8.222;2023-05-10T14:53:03;1.00;;;0.60;;
2994;SDS011;35277;49.890;8.222;2023-05-10T14:55:31;1.10;;;0.50;;
2994;SDS011;35277;49.890;8.222;2023-05-10T14:58:01;1.43;;;0.90;;
2994;SDS011;35277;49.890;8.222;2023-05-10T15:00:29;1.10;;;0.50;;
2994;SDS011;35277;49.890;8.222;2023-05-10T15:02:59;1.20;;;0.60;;
2994;SDS011;35277;49.890;8.222;2023-05-10T15:05:27;7.93;;;2.10;;
2994;SDS011;35277;49.890;8.222;2023-05-10T15:07:55;0.90;;;0.40;;
2994;SDS011;35277;49.890;8.222;2023-05-10T15:10:24;1.00;;;0.40;;
2994;SDS011;35277;49.890;8.222;2023-05-10T15:12:52;1.00;;;0.40;;
2994;SDS011;35277;49.890;8.222;2023-05-10T15:15:20;2.43;;;2.27;;
2994;SDS011;35277;49.890;8.222;2023-05-10T15:17:48;6.90;;;2.83;;
2994;SDS011;35277;49.890;8.222;2023-05-10T15:20:16;11.90;;;2.87;;